createdAt,value
2022-08-03T00:02:19.436Z,3.20
2022-08-03T00:04:47.607Z,3.10
2022-08-03T00:07:15.551Z,3.90
2022-08-03T00:09:43.370Z,3.20
2022-08-03T00:12:11.406Z,2.60
2022-08-03T00:14:39.210Z,3.20
2022-08-03T00:17:07.056Z,2.90
2022-08-03T00:19:34.888Z,3.10
2022-08-03T00:22:02.808Z,3.60
2022-08-03T00:24:31.490Z,2.80
2022-08-03T00:26:59.377Z,2.90
2022-08-03T00:29:27.250Z,2.90
2022-08-03T00:32:00.361Z,3.10
2022-08-03T00:34:36.443Z,3.60
2022-08-03T00:37:16.620Z,3.10
2022-08-03T00:39:46.402Z,4.20
2022-08-03T00:42:14.827Z,2.70
2022-08-03T00:44:43.858Z,2.70
2022-08-03T00:47:11.955Z,2.80
2022-08-03T00:49:40.882Z,3.00
2022-08-03T00:52:10.026Z,3.20
2022-08-03T00:54:38.581Z,2.90
2022-08-03T00:57:07.345Z,3.00
2022-08-03T00:59:35.305Z,3.70
2022-08-03T01:02:03.337Z,4.30
2022-08-03T01:04:31.170Z,3.60
2022-08-03T01:07:20.301Z,3.70
2022-08-03T01:10:21.962Z,3.00
2022-08-03T01:13:03.947Z,3.30
2022-08-03T01:15:43.256Z,3.10
2022-08-03T01:18:29.343Z,3.10
2022-08-03T01:20:58.150Z,3.50
2022-08-03T01:23:56.756Z,3.80
2022-08-03T01:27:00.081Z,3.90
2022-08-03T01:29:58.340Z,3.70
2022-08-03T01:32:53.593Z,3.20
2022-08-03T01:35:28.127Z,3.40
2022-08-03T01:38:03.700Z,3.10
2022-08-03T01:40:32.479Z,3.70
2022-08-03T01:43:00.519Z,3.10
2022-08-03T01:45:28.349Z,3.40
2022-08-03T01:48:02.103Z,3.60
2022-08-03T01:50:31.091Z,3.80
2022-08-03T01:52:58.996Z,3.40
2022-08-03T01:55:29.701Z,3.60
2022-08-03T01:58:05.874Z,3.50
2022-08-03T02:00:38.102Z,3.70
2022-08-03T02:03:06.374Z,3.60
2022-08-03T02:05:34.180Z,3.70
2022-08-03T02:08:03.152Z,3.40
2022-08-03T02:10:34.524Z,3.80
2022-08-03T02:15:33.333Z,3.30
2022-08-03T02:18:01.376Z,3.70
2022-08-03T02:20:29.273Z,4.10
2022-08-03T02:22:57.136Z,3.60
2022-08-03T02:25:25.069Z,3.90
2022-08-03T02:27:57.075Z,3.50
2022-08-03T02:30:38.671Z,3.30
2022-08-03T02:33:11.360Z,4.00
2022-08-03T02:35:39.279Z,3.50
2022-08-03T02:38:08.516Z,3.40
2022-08-03T02:40:36.436Z,3.70
2022-08-03T02:43:08.580Z,3.80
2022-08-03T02:45:37.628Z,3.90
2022-08-03T02:48:05.786Z,3.50
2022-08-03T02:50:34.077Z,3.70
2022-08-03T02:53:02.005Z,3.70
2022-08-03T02:55:29.919Z,3.80
2022-08-03T02:57:57.876Z,3.10
2022-08-03T03:00:31.504Z,3.20
2022-08-03T03:03:01.228Z,3.70
2022-08-03T03:05:53.597Z,3.10
2022-08-03T03:08:24.236Z,4.30
2022-08-03T03:10:56.601Z,3.40
2022-08-03T03:13:24.484Z,3.20
2022-08-03T03:15:52.462Z,4.20
2022-08-03T03:18:22.896Z,3.40
2022-08-03T03:20:52.299Z,4.00
2022-08-03T03:23:22.151Z,3.40
2022-08-03T03:25:49.999Z,2.80
2022-08-03T03:28:17.849Z,2.80
2022-08-03T03:30:52.828Z,3.30
2022-08-03T03:33:22.227Z,3.50
2022-08-03T03:35:51.730Z,4.30
2022-08-03T03:38:20.120Z,4.00
2022-08-03T03:40:48.088Z,4.40
2022-08-03T03:43:17.046Z,4.10
2022-08-03T03:45:45.203Z,3.50
2022-08-03T03:48:13.222Z,3.70
2022-08-03T03:50:41.227Z,3.90
2022-08-03T03:53:11.224Z,3.90
2022-08-03T03:55:59.581Z,3.60
2022-08-03T03:58:27.066Z,3.50
2022-08-03T04:00:55.009Z,3.50
2022-08-03T04:03:23.044Z,3.00
2022-08-03T04:06:09.054Z,3.40
2022-08-03T04:09:15.245Z,4.80
2022-08-03T04:11:47.456Z,4.60
2022-08-03T04:14:28.854Z,4.50
2022-08-03T04:17:02.980Z,3.90
2022-08-03T04:19:32.902Z,3.90
2022-08-03T04:22:04.121Z,4.40
2022-08-03T04:24:35.441Z,4.50
2022-08-03T04:27:05.380Z,3.30
2022-08-03T04:29:33.928Z,4.50
2022-08-03T04:32:03.069Z,5.30
2022-08-03T04:34:31.280Z,4.30
2022-08-03T04:37:01.016Z,4.00
2022-08-03T04:39:31.580Z,4.60
2022-08-03T04:42:07.831Z,4.60
2022-08-03T04:44:39.497Z,3.80
2022-08-03T04:47:07.683Z,3.90
2022-08-03T04:49:37.751Z,4.20
2022-08-03T04:52:07.797Z,4.40
2022-08-03T04:54:50.111Z,4.20
2022-08-03T04:57:23.089Z,4.10
2022-08-03T05:00:01.494Z,4.20
2022-08-03T05:02:31.493Z,4.10
2022-08-03T05:04:59.893Z,3.90
2022-08-03T05:07:35.606Z,4.30
2022-08-03T05:10:15.670Z,3.70
2022-08-03T05:12:46.085Z,3.00
2022-08-03T05:15:14.301Z,2.70
2022-08-03T05:17:42.905Z,2.20
2022-08-03T05:20:11.302Z,2.40
2022-08-03T05:22:39.465Z,2.40
2022-08-03T05:25:08.255Z,2.30
2022-08-03T05:27:36.210Z,2.30
2022-08-03T05:30:29.627Z,2.10
2022-08-03T05:32:53.830Z,2.80
2022-08-03T05:35:56.194Z,2.70
2022-08-03T05:38:12.450Z,2.30
2022-08-03T05:40:40.523Z,2.20
2022-08-03T05:43:25.537Z,2.30
2022-08-03T05:46:12.083Z,1.80
2022-08-03T05:48:41.922Z,1.80
2022-08-03T05:51:11.910Z,1.30
2022-08-03T05:53:41.909Z,1.60
2022-08-03T05:56:13.942Z,1.60
2022-08-03T05:58:46.874Z,1.40
2022-08-03T06:01:16.812Z,1.40
2022-08-03T06:03:46.487Z,1.60
2022-08-03T06:06:14.634Z,1.50
2022-08-03T06:08:43.239Z,1.70
2022-08-03T06:11:11.485Z,1.10
2022-08-03T06:13:42.776Z,1.10
2022-08-03T06:16:11.110Z,1.50
2022-08-03T06:18:41.934Z,1.30
2022-08-03T06:21:14.759Z,1.50
2022-08-03T06:23:52.905Z,1.20
2022-08-03T06:26:53.496Z,1.00
2022-08-03T06:29:34.166Z,1.30
2022-08-03T06:32:23.047Z,1.20
2022-08-03T06:34:59.140Z,1.20
2022-08-03T06:37:27.363Z,0.90
2022-08-03T06:40:39.617Z,1.30
2022-08-03T06:44:03.653Z,1.20
2022-08-03T06:46:32.538Z,1.10
2022-08-03T06:50:25.992Z,1.10
2022-08-03T06:53:06.024Z,1.70
2022-08-03T06:55:40.741Z,1.30
2022-08-03T06:58:47.737Z,0.90
2022-08-03T07:01:41.657Z,1.50
2022-08-03T07:04:12.518Z,1.50
2022-08-03T07:07:24.088Z,1.40
2022-08-03T07:11:33.526Z,1.30
2022-08-03T07:15:20.610Z,1.20
2022-08-03T07:19:20.476Z,1.10
2022-08-03T07:23:19.794Z,1.20
2022-08-03T07:26:17.485Z,1.10
2022-08-03T07:28:53.050Z,1.60
2022-08-03T07:31:46.705Z,1.40
2022-08-03T07:34:15.404Z,1.20
2022-08-03T07:36:43.530Z,1.00
2022-08-03T07:39:17.768Z,1.00
2022-08-03T07:41:46.783Z,1.40
2022-08-03T07:44:15.057Z,1.60
2022-08-03T07:46:46.424Z,1.30
2022-08-03T07:51:45.723Z,1.20
2022-08-03T07:54:16.493Z,1.00
2022-08-03T07:56:44.451Z,1.50
2022-08-03T07:59:13.029Z,1.40
2022-08-03T08:01:41.397Z,1.30
2022-08-03T08:04:12.719Z,1.40
2022-08-03T08:06:40.933Z,1.30
2022-08-03T08:09:09.486Z,1.20
2022-08-03T08:11:40.071Z,1.30
2022-08-03T08:14:08.349Z,1.10
2022-08-03T08:16:36.323Z,1.20
2022-08-03T08:19:06.896Z,0.90
2022-08-03T08:21:53.122Z,1.30
2022-08-03T08:24:25.372Z,1.40
2022-08-03T08:26:53.324Z,1.10
2022-08-03T08:29:23.441Z,1.10
2022-08-03T08:31:51.401Z,1.20
2022-08-03T08:34:21.955Z,1.50
2022-08-03T08:36:50.163Z,1.50
2022-08-03T08:39:18.371Z,1.00
2022-08-03T08:41:49.625Z,1.60
2022-08-03T08:44:20.988Z,1.30
2022-08-03T08:46:48.931Z,0.90
2022-08-03T08:49:17.613Z,1.40
2022-08-03T08:51:54.791Z,1.20
2022-08-03T08:54:29.177Z,1.30
2022-08-03T08:56:57.584Z,1.20
2022-08-03T08:59:25.528Z,1.40
2022-08-03T09:01:58.383Z,1.60
2022-08-03T09:04:26.850Z,1.30
2022-08-03T09:07:18.756Z,1.10
2022-08-03T09:10:10.604Z,1.70
2022-08-03T09:12:41.982Z,1.50
2022-08-03T09:15:24.410Z,1.60
2022-08-03T09:17:54.807Z,1.30
2022-08-03T09:20:25.844Z,1.40
2022-08-03T09:22:59.530Z,1.80
2022-08-03T09:25:47.782Z,1.10
2022-08-03T09:28:52.469Z,1.50
2022-08-03T09:31:05.208Z,1.20
2022-08-03T09:33:35.943Z,1.30
2022-08-03T09:36:04.490Z,1.10
2022-08-03T09:38:32.525Z,1.50
2022-08-03T09:41:01.049Z,1.20
2022-08-03T09:43:29.061Z,1.20
2022-08-03T09:46:07.870Z,1.70
2022-08-03T09:48:37.473Z,1.50
2022-08-03T09:51:12.956Z,1.40
2022-08-03T09:53:59.416Z,1.60
2022-08-03T09:56:47.747Z,1.20
2022-08-03T09:59:27.951Z,1.20
2022-08-03T10:01:57.180Z,1.20
2022-08-03T10:04:25.474Z,1.10
2022-08-03T10:07:08.613Z,1.50
2022-08-03T10:09:37.273Z,1.40
2022-08-03T10:12:11.735Z,1.20
2022-08-03T10:14:41.916Z,1.30
2022-08-03T10:17:09.936Z,1.60
2022-08-03T10:19:38.174Z,1.40
2022-08-03T10:22:27.953Z,1.40
2022-08-03T10:25:08.477Z,1.40
2022-08-03T10:27:42.785Z,1.40
2022-08-03T10:30:11.719Z,1.70
2022-08-03T10:32:55.200Z,1.50
2022-08-03T10:35:23.958Z,1.20
2022-08-03T10:37:59.698Z,1.70
2022-08-03T10:43:27.836Z,1.40
2022-08-03T10:45:55.634Z,1.60
2022-08-03T10:48:23.478Z,1.20
2022-08-03T10:50:51.413Z,1.00
2022-08-03T10:53:35.796Z,1.30
2022-08-03T10:56:43.739Z,1.60
2022-08-03T10:59:10.963Z,1.40
2022-08-03T11:02:00.371Z,1.40
2022-08-03T11:04:30.619Z,1.50
2022-08-03T11:07:18.474Z,1.20
2022-08-03T11:09:49.121Z,1.10
2022-08-03T11:12:31.376Z,1.40
2022-08-03T11:15:06.618Z,1.40
2022-08-03T11:17:46.623Z,1.70
2022-08-03T11:20:56.725Z,1.40
2022-08-03T11:24:04.541Z,1.30
2022-08-03T11:26:34.443Z,1.30
2022-08-03T11:29:28.740Z,1.30
2022-08-03T11:31:56.683Z,1.60
2022-08-03T11:34:25.020Z,1.40
2022-08-03T11:37:24.507Z,1.20
2022-08-03T11:39:54.918Z,1.50
2022-08-03T11:42:23.225Z,1.50
2022-08-03T11:44:55.737Z,1.20
2022-08-03T11:47:27.313Z,1.30
2022-08-03T11:49:59.126Z,1.20
2022-08-03T11:52:28.755Z,1.30
2022-08-03T11:54:57.526Z,1.30
2022-08-03T11:59:13.241Z,1.30
2022-08-03T12:00:25.941Z,1.60
2022-08-03T12:02:57.744Z,1.80
2022-08-03T12:05:51.212Z,1.50
2022-08-03T12:08:32.391Z,1.60
2022-08-03T12:11:04.619Z,1.40
2022-08-03T12:16:28.769Z,1.30
2022-08-03T12:19:00.359Z,1.50
2022-08-03T12:21:28.997Z,1.20
2022-08-03T12:24:02.322Z,1.20
2022-08-03T12:26:31.218Z,1.30
2022-08-03T12:28:59.337Z,1.30
2022-08-03T12:31:27.381Z,2.00
2022-08-03T12:34:04.517Z,1.50
2022-08-03T12:36:34.664Z,1.80
2022-08-03T12:39:09.185Z,1.50
2022-08-03T12:41:39.383Z,1.50
2022-08-03T12:44:08.993Z,1.80
2022-08-03T12:46:47.081Z,1.40
2022-08-03T12:49:17.461Z,1.00
2022-08-03T12:51:45.552Z,1.30
2022-08-03T12:54:24.731Z,1.30
2022-08-03T12:57:15.633Z,1.40
2022-08-03T12:59:53.891Z,1.60
2022-08-03T13:04:53.561Z,1.50
2022-08-03T13:07:22.301Z,1.70
2022-08-03T13:09:53.261Z,1.60
2022-08-03T13:12:22.648Z,1.20
2022-08-03T13:14:56.796Z,1.20
2022-08-03T13:17:25.070Z,1.60
2022-08-03T13:19:53.640Z,1.80
2022-08-03T13:22:31.138Z,1.70
2022-08-03T13:25:00.965Z,1.30
2022-08-03T13:28:12.470Z,1.30
2022-08-03T13:30:30.059Z,1.70
2022-08-03T13:33:00.191Z,1.30
2022-08-03T13:35:28.086Z,1.30
2022-08-03T13:37:55.904Z,1.60
2022-08-03T13:40:30.650Z,1.40
2022-08-03T13:43:02.468Z,1.30
2022-08-03T13:45:30.605Z,1.80
2022-08-03T13:47:58.534Z,1.50
2022-08-03T13:50:26.436Z,1.80
2022-08-03T13:52:54.311Z,1.40
2022-08-03T13:55:22.578Z,1.50
2022-08-03T13:58:19.057Z,1.40
2022-08-03T14:00:39.844Z,1.50
2022-08-03T14:03:15.360Z,1.40
2022-08-03T14:05:44.015Z,1.80
2022-08-03T14:08:12.273Z,1.10
2022-08-03T14:10:43.029Z,1.50
2022-08-03T14:13:12.645Z,1.20
2022-08-03T14:15:50.320Z,1.40
2022-08-03T14:18:28.925Z,1.60
2022-08-03T14:21:06.707Z,1.30
2022-08-03T14:23:36.069Z,1.70
2022-08-03T14:26:05.832Z,1.10
2022-08-03T14:28:33.796Z,1.10
2022-08-03T14:31:01.934Z,1.50
2022-08-03T14:33:29.822Z,1.50
2022-08-03T14:35:57.978Z,1.20
2022-08-03T14:38:25.867Z,1.30
2022-08-03T14:40:53.796Z,1.50
2022-08-03T14:43:21.672Z,1.30
2022-08-03T14:45:53.892Z,1.30
2022-08-03T14:50:30.922Z,1.30
2022-08-03T14:51:11.645Z,1.50
2022-08-03T14:53:39.598Z,1.30
2022-08-03T14:56:10.488Z,1.10
2022-08-03T14:58:39.003Z,1.20
2022-08-03T15:02:02.948Z,1.50
2022-08-03T15:03:58.448Z,6.10
2022-08-03T15:06:26.363Z,3.70
2022-08-03T15:09:24.423Z,1.20
2022-08-03T15:11:42.974Z,1.60
2022-08-03T15:14:10.937Z,3.20
2022-08-03T15:16:41.670Z,2.00
2022-08-03T15:20:01.242Z,1.30
2022-08-03T15:21:57.438Z,1.20
2022-08-03T15:24:29.400Z,1.50
2022-08-03T15:26:57.262Z,1.60
2022-08-03T15:30:06.901Z,1.50
2022-08-03T15:32:13.212Z,13.20
2022-08-03T15:34:41.139Z,1.90
2022-08-03T15:37:20.109Z,1.10
2022-08-03T15:39:58.967Z,1.20
2022-08-03T15:42:29.907Z,1.40
2022-08-03T15:44:57.891Z,1.30
2022-08-03T15:47:26.205Z,1.70
2022-08-03T15:49:54.184Z,1.20
2022-08-03T15:52:22.071Z,1.40
2022-08-03T15:54:49.974Z,1.10
2022-08-03T15:57:18.010Z,1.40
2022-08-03T15:59:46.051Z,1.40
2022-08-03T16:02:13.992Z,1.30
2022-08-03T16:04:42.093Z,1.30
2022-08-03T16:07:12.890Z,1.50
2022-08-03T16:09:42.728Z,1.50
2022-08-03T16:12:15.761Z,1.40
2022-08-03T16:14:54.179Z,1.50
2022-08-03T16:17:23.698Z,1.10
2022-08-03T16:19:54.103Z,1.60
2022-08-03T16:22:24.551Z,1.20
2022-08-03T16:24:53.528Z,1.40
2022-08-03T16:27:56.912Z,1.30
2022-08-03T16:30:16.681Z,1.70
2022-08-03T16:32:45.542Z,1.50
2022-08-03T16:35:19.472Z,1.50
2022-08-03T16:37:56.215Z,1.30
2022-08-03T16:40:25.202Z,2.20
2022-08-03T16:42:53.152Z,1.90
2022-08-03T16:45:21.165Z,2.20
2022-08-03T16:47:49.089Z,1.70
2022-08-03T16:50:34.723Z,1.40
2022-08-03T16:53:09.864Z,1.90
2022-08-03T16:55:43.534Z,2.20
2022-08-03T16:58:24.361Z,5.10
2022-08-03T17:01:10.905Z,4.30
2022-08-03T17:04:02.478Z,3.60
2022-08-03T17:06:36.875Z,7.40
2022-08-03T17:09:15.476Z,3.80
2022-08-03T17:11:47.700Z,1.90
2022-08-03T17:14:22.591Z,1.90
2022-08-03T17:16:53.841Z,1.40
2022-08-03T17:19:23.726Z,1.20
2022-08-03T17:22:10.978Z,1.60
2022-08-03T17:24:44.608Z,1.70
2022-08-03T17:28:48.843Z,1.70
2022-08-03T17:30:12.214Z,1.30
2022-08-03T17:32:56.872Z,1.40
2022-08-03T17:35:34.483Z,1.60
2022-08-03T17:38:12.092Z,1.50
2022-08-03T17:40:48.235Z,1.50
2022-08-03T17:44:14.247Z,1.00
2022-08-03T17:46:10.756Z,1.30
2022-08-03T17:48:41.377Z,2.10
2022-08-03T17:51:50.056Z,1.50
2022-08-03T17:54:27.173Z,1.30
2022-08-03T17:57:22.349Z,1.60
2022-08-03T18:00:27.574Z,1.70
2022-08-03T18:03:22.540Z,1.50
2022-08-03T18:06:10.987Z,1.50
2022-08-03T18:08:54.217Z,2.00
2022-08-03T18:11:24.135Z,1.80
2022-08-03T18:14:16.463Z,1.40
2022-08-03T18:17:10.558Z,1.10
2022-08-03T18:20:03.606Z,1.70
2022-08-03T18:22:27.555Z,1.50
2022-08-03T18:24:58.475Z,1.60
2022-08-03T18:27:42.519Z,1.80
2022-08-03T18:30:15.431Z,1.70
2022-08-03T18:32:44.054Z,1.50
2022-08-03T18:35:53.914Z,2.00
2022-08-03T18:38:18.776Z,1.80
2022-08-03T18:40:48.771Z,2.20
2022-08-03T18:43:18.883Z,1.50
2022-08-03T18:45:57.663Z,2.00
2022-08-03T18:49:08.260Z,3.40
2022-08-03T18:51:43.216Z,3.10
2022-08-03T18:55:14.063Z,2.80
2022-08-03T18:58:17.682Z,2.20
2022-08-03T19:01:57.256Z,3.80
2022-08-03T19:04:15.669Z,3.10
2022-08-03T19:06:46.161Z,2.60
2022-08-03T19:09:39.731Z,2.20
2022-08-03T19:12:32.331Z,5.50
2022-08-03T19:15:12.828Z,5.70
2022-08-03T19:17:52.936Z,5.80
2022-08-03T19:20:28.253Z,4.40
2022-08-03T19:22:57.399Z,5.10
2022-08-03T19:25:34.599Z,4.50
2022-08-03T19:28:06.029Z,6.00
2022-08-03T19:30:46.424Z,5.30
2022-08-03T19:33:22.687Z,6.30
2022-08-03T19:35:55.116Z,5.40
2022-08-03T19:38:29.114Z,7.60
2022-08-03T19:41:01.057Z,7.10
2022-08-03T19:43:52.671Z,7.80
2022-08-03T19:46:30.379Z,7.10
2022-08-03T19:49:15.836Z,7.70
2022-08-03T19:51:58.284Z,6.20
2022-08-03T19:54:45.846Z,6.70
2022-08-03T19:57:29.830Z,6.60
2022-08-03T19:59:58.438Z,6.10
2022-08-03T20:02:33.805Z,5.30
2022-08-03T20:05:01.774Z,5.20
2022-08-03T20:07:32.150Z,4.20
2022-08-03T20:10:02.119Z,4.80
2022-08-03T20:12:33.165Z,4.50
2022-08-03T20:15:05.700Z,4.40
2022-08-03T20:17:54.397Z,4.30
2022-08-03T20:20:24.450Z,4.50
2022-08-03T20:22:57.672Z,4.40
2022-08-03T20:25:38.027Z,2.60
2022-08-03T20:28:14.302Z,3.10
2022-08-03T20:30:47.286Z,2.70
2022-08-03T20:33:18.754Z,3.30
2022-08-03T20:35:49.627Z,2.90
2022-08-03T20:38:18.957Z,3.50
2022-08-03T20:40:48.185Z,3.50
2022-08-03T20:43:16.636Z,3.90
2022-08-03T20:45:59.014Z,6.30
2022-08-03T20:48:36.588Z,4.50
2022-08-03T20:51:05.704Z,4.30
2022-08-03T20:53:57.065Z,4.80
2022-08-03T20:56:35.362Z,3.80
2022-08-03T20:59:06.081Z,3.20
2022-08-03T21:01:36.612Z,5.20
2022-08-03T21:04:09.291Z,3.00
2022-08-03T21:06:57.862Z,2.70
2022-08-03T21:09:33.395Z,3.10
2022-08-03T21:12:08.509Z,2.70
2022-08-03T21:14:47.951Z,3.20
2022-08-03T21:17:38.310Z,3.10
2022-08-03T21:20:10.322Z,3.80
2022-08-03T21:22:39.971Z,3.30
2022-08-03T21:25:09.447Z,2.80
2022-08-03T21:27:37.435Z,4.40
2022-08-03T21:30:08.463Z,3.50
2022-08-03T21:32:40.326Z,3.30
2022-08-03T21:35:10.697Z,3.00
2022-08-03T21:37:39.769Z,2.90
2022-08-03T21:40:09.539Z,2.90
2022-08-03T21:42:41.372Z,2.90
2022-08-03T21:45:16.862Z,2.40
2022-08-03T21:47:45.404Z,3.10
2022-08-03T21:50:13.571Z,2.60
2022-08-03T21:52:46.853Z,3.60
2022-08-03T21:55:20.658Z,4.00
2022-08-03T21:57:53.456Z,3.60
2022-08-03T22:02:55.657Z,4.80
2022-08-03T22:05:42.990Z,4.80
2022-08-03T22:08:13.492Z,3.80
2022-08-03T22:10:43.975Z,3.50
2022-08-03T22:13:13.605Z,9.90
2022-08-03T22:15:42.001Z,12.90
2022-08-03T22:18:10.076Z,13.30
2022-08-03T22:20:38.067Z,7.90
2022-08-03T22:23:06.672Z,8.30
2022-08-03T22:25:36.945Z,9.50
2022-08-03T22:28:10.757Z,7.30
2022-08-03T22:30:39.261Z,6.40
2022-08-03T22:33:11.659Z,6.80
2022-08-03T22:35:46.415Z,4.10
2022-08-03T22:38:19.406Z,4.40
2022-08-03T22:40:49.022Z,7.50
2022-08-03T22:43:21.797Z,3.30
2022-08-03T22:46:09.193Z,2.80
2022-08-03T22:48:40.733Z,2.80
2022-08-03T22:51:10.291Z,2.80
2022-08-03T22:53:38.860Z,3.30
2022-08-03T22:56:06.880Z,3.80
2022-08-03T22:58:34.824Z,2.80
2022-08-03T23:01:08.171Z,3.40
2022-08-03T23:03:59.923Z,2.80
2022-08-03T23:06:32.907Z,3.30
2022-08-03T23:09:11.687Z,3.20
2022-08-03T23:14:15.593Z,4.20
2022-08-03T23:16:45.078Z,3.40
2022-08-03T23:19:17.032Z,2.80
2022-08-03T23:22:02.513Z,3.80
2022-08-03T23:24:38.220Z,3.10
2022-08-03T23:27:07.719Z,3.00
2022-08-03T23:29:37.169Z,2.90
2022-08-03T23:32:06.112Z,3.50
2022-08-03T23:34:53.450Z,3.20
2022-08-03T23:37:21.416Z,3.20
2022-08-03T23:39:49.908Z,3.30
2022-08-03T23:42:19.732Z,2.90
2022-08-03T23:44:49.311Z,3.40
2022-08-03T23:47:17.292Z,3.00
2022-08-03T23:49:45.192Z,3.30
2022-08-03T23:52:34.332Z,2.50
2022-08-03T23:55:22.791Z,3.00
2022-08-03T23:58:14.906Z,2.50
